sensor_id;sensor_type;location;lat;lon;timestamp;temperature;humidity
48551;DHT22;34397;51.176;6.738;2024-01-11T00:01:47;-2.80;63.70
48551;DHT22;34397;51.176;6.738;2024-01-11T00:04:19;-2.70;63.70
48551;DHT22;34397;51.176;6.738;2024-01-11T00:06:51;-2.80;63.70
48551;DHT22;34397;51.176;6.738;2024-01-11T00:09:22;-2.80;63.90
48551;DHT22;34397;51.176;6.738;2024-01-11T00:11:55;-2.80;64.00
48551;DHT22;34397;51.176;6.738;2024-01-11T00:14:26;-2.80;64.00
48551;DHT22;34397;51.176;6.738;2024-01-11T00:16:59;-2.80;64.20
48551;DHT22;34397;51.176;6.738;2024-01-11T00:19:31;-2.80;64.20
48551;DHT22;34397;51.176;6.738;2024-01-11T00:22:03;-2.80;64.00
48551;DHT22;34397;51.176;6.738;2024-01-11T00:24:36;-2.80;63.90
48551;DHT22;34397;51.176;6.738;2024-01-11T00:27:08;-2.90;63.80
48551;DHT22;34397;51.176;6.738;2024-01-11T00:29:39;-2.90;63.80
48551;DHT22;34397;51.176;6.738;2024-01-11T00:32:12;-2.90;63.90
48551;DHT22;34397;51.176;6.738;2024-01-11T00:34:44;-2.90;64.20
48551;DHT22;34397;51.176;6.738;2024-01-11T00:37:16;-2.90;64.40
48551;DHT22;34397;51.176;6.738;2024-01-11T00:39:48;-2.90;64.30
48551;DHT22;34397;51.176;6.738;2024-01-11T00:42:19;-3.00;64.90
48551;DHT22;34397;51.176;6.738;2024-01-11T00:44:51;-3.00;64.30
48551;DHT22;34397;51.176;6.738;2024-01-11T00:47:24;-3.00;64.30
48551;DHT22;34397;51.176;6.738;2024-01-11T00:49:56;-3.00;64.30
48551;DHT22;34397;51.176;6.738;2024-01-11T00:52:28;-3.00;64.30
48551;DHT22;34397;51.176;6.738;2024-01-11T00:55:00;-3.00;64.40
48551;DHT22;34397;51.176;6.738;2024-01-11T00:57:31;-3.00;64.50
48551;DHT22;34397;51.176;6.738;2024-01-11T01:00:03;-3.00;64.40
48551;DHT22;34397;51.176;6.738;2024-01-11T01:02:37;-3.10;64.30
48551;DHT22;34397;51.176;6.738;2024-01-11T01:05:09;-3.10;64.30
48551;DHT22;34397;51.176;6.738;2024-01-11T01:07:41;-3.10;64.40
48551;DHT22;34397;51.176;6.738;2024-01-11T01:10:13;-3.10;64.50
48551;DHT22;34397;51.176;6.738;2024-01-11T01:12:44;-3.10;64.70
48551;DHT22;34397;51.176;6.738;2024-01-11T01:15:16;-3.20;64.70
48551;DHT22;34397;51.176;6.738;2024-01-11T01:17:49;-3.10;64.80
48551;DHT22;34397;51.176;6.738;2024-01-11T01:20:21;-3.10;64.90
48551;DHT22;34397;51.176;6.738;2024-01-11T01:22:53;-3.20;64.90
48551;DHT22;34397;51.176;6.738;2024-01-11T01:25:25;-3.10;65.10
48551;DHT22;34397;51.176;6.738;2024-01-11T01:27:57;-3.20;65.30
48551;DHT22;34397;51.176;6.738;2024-01-11T01:30:29;-3.20;65.20
48551;DHT22;34397;51.176;6.738;2024-01-11T01:33:02;-3.20;65.30
48551;DHT22;34397;51.176;6.738;2024-01-11T01:35:34;-3.20;65.60
48551;DHT22;34397;51.176;6.738;2024-01-11T01:38:07;-3.20;65.30
48551;DHT22;34397;51.176;6.738;2024-01-11T01:40:38;-3.20;65.30
48551;DHT22;34397;51.176;6.738;2024-01-11T01:43:10;-3.20;65.30
48551;DHT22;34397;51.176;6.738;2024-01-11T01:45:43;-3.20;65.30
48551;DHT22;34397;51.176;6.738;2024-01-11T01:48:16;-3.20;65.30
48551;DHT22;34397;51.176;6.738;2024-01-11T01:50:48;-3.20;65.60
48551;DHT22;34397;51.176;6.738;2024-01-11T01:53:21;-3.20;65.50
48551;DHT22;34397;51.176;6.738;2024-01-11T01:55:54;-3.20;65.50
48551;DHT22;34397;51.176;6.738;2024-01-11T01:58:26;-3.30;65.70
48551;DHT22;34397;51.176;6.738;2024-01-11T02:00:58;-3.20;65.80
48551;DHT22;34397;51.176;6.738;2024-01-11T02:03:31;-3.30;65.70
48551;DHT22;34397;51.176;6.738;2024-01-11T02:06:04;-3.30;65.60
48551;DHT22;34397;51.176;6.738;2024-01-11T02:08:36;-3.30;65.60
48551;DHT22;34397;51.176;6.738;2024-01-11T02:11:09;-3.30;65.50
48551;DHT22;34397;51.176;6.738;2024-01-11T02:13:42;-3.40;65.40
48551;DHT22;34397;51.176;6.738;2024-01-11T02:16:14;-3.40;65.60
48551;DHT22;34397;51.176;6.738;2024-01-11T02:18:47;-3.40;65.60
48551;DHT22;34397;51.176;6.738;2024-01-11T02:21:19;-3.40;66.50
48551;DHT22;34397;51.176;6.738;2024-01-11T02:23:59;-3.40;66.00
48551;DHT22;34397;51.176;6.738;2024-01-11T02:26:34;-3.40;65.90
48551;DHT22;34397;51.176;6.738;2024-01-11T02:29:06;-3.40;65.80
48551;DHT22;34397;51.176;6.738;2024-01-11T02:31:37;-3.40;65.80
48551;DHT22;34397;51.176;6.738;2024-01-11T02:34:09;-3.50;65.80
48551;DHT22;34397;51.176;6.738;2024-01-11T02:36:41;-3.50;65.80
48551;DHT22;34397;51.176;6.738;2024-01-11T02:39:15;-3.50;66.00
48551;DHT22;34397;51.176;6.738;2024-01-11T02:41:49;-3.50;66.10
48551;DHT22;34397;51.176;6.738;2024-01-11T02:44:22;-3.50;66.40
48551;DHT22;34397;51.176;6.738;2024-01-11T02:46:53;-3.50;66.50
48551;DHT22;34397;51.176;6.738;2024-01-11T02:49:25;-3.50;66.40
48551;DHT22;34397;51.176;6.738;2024-01-11T02:51:57;-3.50;66.30
48551;DHT22;34397;51.176;6.738;2024-01-11T02:54:30;-3.50;66.30
48551;DHT22;34397;51.176;6.738;2024-01-11T02:57:02;-3.50;66.10
48551;DHT22;34397;51.176;6.738;2024-01-11T02:59:34;-3.60;66.10
48551;DHT22;34397;51.176;6.738;2024-01-11T03:02:06;-3.60;66.30
48551;DHT22;34397;51.176;6.738;2024-01-11T03:04:37;-3.60;66.50
48551;DHT22;34397;51.176;6.738;2024-01-11T03:07:09;-3.60;66.50
48551;DHT22;34397;51.176;6.738;2024-01-11T03:09:42;-3.60;66.30
48551;DHT22;34397;51.176;6.738;2024-01-11T03:12:14;-3.60;66.30
48551;DHT22;34397;51.176;6.738;2024-01-11T03:14:46;-3.60;66.20
48551;DHT22;34397;51.176;6.738;2024-01-11T03:17:18;-3.70;66.30
48551;DHT22;34397;51.176;6.738;2024-01-11T03:19:49;-3.70;66.40
48551;DHT22;34397;51.176;6.738;2024-01-11T03:22:21;-3.70;66.50
48551;DHT22;34397;51.176;6.738;2024-01-11T03:24:54;-3.70;66.50
48551;DHT22;34397;51.176;6.738;2024-01-11T03:27:26;-3.70;66.60
48551;DHT22;34397;51.176;6.738;2024-01-11T03:29:57;-3.70;66.80
48551;DHT22;34397;51.176;6.738;2024-01-11T03:32:29;-3.70;66.90
48551;DHT22;34397;51.176;6.738;2024-01-11T03:35:01;-3.70;67.10
48551;DHT22;34397;51.176;6.738;2024-01-11T03:37:33;-3.70;67.30
48551;DHT22;34397;51.176;6.738;2024-01-11T03:40:07;-3.70;67.30
48551;DHT22;34397;51.176;6.738;2024-01-11T03:42:39;-3.60;67.40
48551;DHT22;34397;51.176;6.738;2024-01-11T03:45:10;-3.60;67.20
48551;DHT22;34397;51.176;6.738;2024-01-11T03:47:42;-3.60;67.20
48551;DHT22;34397;51.176;6.738;2024-01-11T03:50:14;-3.70;67.10
48551;DHT22;34397;51.176;6.738;2024-01-11T03:52:45;-3.70;67.10
48551;DHT22;34397;51.176;6.738;2024-01-11T03:55:19;-3.70;67.20
48551;DHT22;34397;51.176;6.738;2024-01-11T03:57:51;-3.70;67.40
48551;DHT22;34397;51.176;6.738;2024-01-11T04:00:23;-3.70;67.70
48551;DHT22;34397;51.176;6.738;2024-01-11T04:02:54;-3.60;68.20
48551;DHT22;34397;51.176;6.738;2024-01-11T04:05:26;-3.60;68.30
48551;DHT22;34397;51.176;6.738;2024-01-11T04:07:58;-3.60;68.40
48551;DHT22;34397;51.176;6.738;2024-01-11T04:10:31;-3.50;68.40
48551;DHT22;34397;51.176;6.738;2024-01-11T04:13:03;-3.50;68.20
48551;DHT22;34397;51.176;6.738;2024-01-11T04:15:35;-3.50;68.10
48551;DHT22;34397;51.176;6.738;2024-01-11T04:18:07;-3.50;67.90
48551;DHT22;34397;51.176;6.738;2024-01-11T04:20:38;-3.50;68.00
48551;DHT22;34397;51.176;6.738;2024-01-11T04:23:10;-3.50;68.20
48551;DHT22;34397;51.176;6.738;2024-01-11T04:25:43;-3.50;68.30
48551;DHT22;34397;51.176;6.738;2024-01-11T04:28:15;-3.40;68.40
48551;DHT22;34397;51.176;6.738;2024-01-11T04:30:46;-3.40;68.40
48551;DHT22;34397;51.176;6.738;2024-01-11T04:33:18;-3.40;68.40
48551;DHT22;34397;51.176;6.738;2024-01-11T04:35:50;-3.40;68.30
48551;DHT22;34397;51.176;6.738;2024-01-11T04:38:22;-3.30;68.50
48551;DHT22;34397;51.176;6.738;2024-01-11T04:40:55;-3.30;68.60
48551;DHT22;34397;51.176;6.738;2024-01-11T04:43:27;-3.40;68.30
48551;DHT22;34397;51.176;6.738;2024-01-11T04:45:58;-3.30;68.20
48551;DHT22;34397;51.176;6.738;2024-01-11T04:48:30;-3.30;68.30
48551;DHT22;34397;51.176;6.738;2024-01-11T04:51:02;-3.30;68.40
48551;DHT22;34397;51.176;6.738;2024-01-11T04:53:35;-3.30;68.40
48551;DHT22;34397;51.176;6.738;2024-01-11T04:56:10;-3.30;68.50
48551;DHT22;34397;51.176;6.738;2024-01-11T04:58:42;-3.30;68.50
48551;DHT22;34397;51.176;6.738;2024-01-11T05:01:15;-3.30;68.50
48551;DHT22;34397;51.176;6.738;2024-01-11T05:03:48;-3.30;68.40
48551;DHT22;34397;51.176;6.738;2024-01-11T05:06:21;-3.20;68.40
48551;DHT22;34397;51.176;6.738;2024-01-11T05:08:54;-3.30;68.30
48551;DHT22;34397;51.176;6.738;2024-01-11T05:11:27;-3.30;68.20
48551;DHT22;34397;51.176;6.738;2024-01-11T05:13:59;-3.30;68.30
48551;DHT22;34397;51.176;6.738;2024-01-11T05:16:31;-3.20;68.40
48551;DHT22;34397;51.176;6.738;2024-01-11T05:19:02;-3.30;68.30
48551;DHT22;34397;51.176;6.738;2024-01-11T05:21:34;-3.30;68.20
48551;DHT22;34397;51.176;6.738;2024-01-11T05:24:06;-3.30;68.10
48551;DHT22;34397;51.176;6.738;2024-01-11T05:26:39;-3.30;68.20
48551;DHT22;34397;51.176;6.738;2024-01-11T05:29:11;-3.30;68.40
48551;DHT22;34397;51.176;6.738;2024-01-11T05:31:43;-3.30;68.30
48551;DHT22;34397;51.176;6.738;2024-01-11T05:34:14;-3.30;68.50
48551;DHT22;34397;51.176;6.738;2024-01-11T05:36:46;-3.30;68.50
48551;DHT22;34397;51.176;6.738;2024-01-11T05:39:18;-3.30;68.40
48551;DHT22;34397;51.176;6.738;2024-01-11T05:41:51;-3.30;68.40
48551;DHT22;34397;51.176;6.738;2024-01-11T05:44:23;-3.30;68.30
48551;DHT22;34397;51.176;6.738;2024-01-11T05:46:54;-3.40;68.30
48551;DHT22;34397;51.176;6.738;2024-01-11T05:49:26;-3.30;68.50
48551;DHT22;34397;51.176;6.738;2024-01-11T05:51:58;-3.40;68.40
48551;DHT22;34397;51.176;6.738;2024-01-11T05:54:29;-3.40;68.40
48551;DHT22;34397;51.176;6.738;2024-01-11T05:57:03;-3.40;68.20
48551;DHT22;34397;51.176;6.738;2024-01-11T05:59:34;-3.40;68.30
48551;DHT22;34397;51.176;6.738;2024-01-11T06:02:06;-3.40;68.50
48551;DHT22;34397;51.176;6.738;2024-01-11T06:04:38;-3.40;68.80
48551;DHT22;34397;51.176;6.738;2024-01-11T06:07:10;-3.40;69.10
48551;DHT22;34397;51.176;6.738;2024-01-11T06:09:41;-3.40;69.20
48551;DHT22;34397;51.176;6.738;2024-01-11T06:12:15;-3.30;69.30
48551;DHT22;34397;51.176;6.738;2024-01-11T06:14:47;-3.30;69.20
48551;DHT22;34397;51.176;6.738;2024-01-11T06:17:19;-3.30;69.20
48551;DHT22;34397;51.176;6.738;2024-01-11T06:19:51;-3.30;69.00
48551;DHT22;34397;51.176;6.738;2024-01-11T06:22:22;-3.30;68.90
48551;DHT22;34397;51.176;6.738;2024-01-11T06:24:54;-3.30;68.80
48551;DHT22;34397;51.176;6.738;2024-01-11T06:27:27;-3.30;68.70
48551;DHT22;34397;51.176;6.738;2024-01-11T06:29:59;-3.30;69.30
48551;DHT22;34397;51.176;6.738;2024-01-11T06:32:30;-3.30;68.70
48551;DHT22;34397;51.176;6.738;2024-01-11T06:35:02;-3.30;68.60
48551;DHT22;34397;51.176;6.738;2024-01-11T06:37:35;-3.40;68.50
48551;DHT22;34397;51.176;6.738;2024-01-11T06:40:07;-3.40;68.40
48551;DHT22;34397;51.176;6.738;2024-01-11T06:42:40;-3.40;68.50
48551;DHT22;34397;51.176;6.738;2024-01-11T06:45:12;-3.40;68.60
48551;DHT22;34397;51.176;6.738;2024-01-11T06:47:44;-3.40;68.70
48551;DHT22;34397;51.176;6.738;2024-01-11T06:50:17;-3.40;68.60
48551;DHT22;34397;51.176;6.738;2024-01-11T06:52:49;-3.50;68.50
48551;DHT22;34397;51.176;6.738;2024-01-11T06:55:20;-3.50;68.50
48551;DHT22;34397;51.176;6.738;2024-01-11T06:57:54;-3.50;68.60
48551;DHT22;34397;51.176;6.738;2024-01-11T07:00:25;-3.50;68.80
48551;DHT22;34397;51.176;6.738;2024-01-11T07:02:57;-3.50;68.80
48551;DHT22;34397;51.176;6.738;2024-01-11T07:05:29;-3.60;68.80
48551;DHT22;34397;51.176;6.738;2024-01-11T07:08:00;-3.50;69.10
48551;DHT22;34397;51.176;6.738;2024-01-11T07:10:32;-3.50;69.20
48551;DHT22;34397;51.176;6.738;2024-01-11T07:13:05;-3.50;69.30
48551;DHT22;34397;51.176;6.738;2024-01-11T07:15:37;-3.50;69.30
48551;DHT22;34397;51.176;6.738;2024-01-11T07:18:08;-3.50;69.30
48551;DHT22;34397;51.176;6.738;2024-01-11T07:20:40;-3.50;69.40
48551;DHT22;34397;51.176;6.738;2024-01-11T07:23:12;-3.40;69.60
48551;DHT22;34397;51.176;6.738;2024-01-11T07:25:44;-3.40;69.60
48551;DHT22;34397;51.176;6.738;2024-01-11T07:28:17;-3.40;69.40
48551;DHT22;34397;51.176;6.738;2024-01-11T07:30:49;-3.40;69.40
48551;DHT22;34397;51.176;6.738;2024-01-11T07:33:21;-3.30;69.30
48551;DHT22;34397;51.176;6.738;2024-01-11T07:35:53;-3.30;69.10
48551;DHT22;34397;51.176;6.738;2024-01-11T07:38:26;-3.30;69.00
48551;DHT22;34397;51.176;6.738;2024-01-11T07:40:57;-3.30;68.90
48551;DHT22;34397;51.176;6.738;2024-01-11T07:43:31;-3.30;68.90
48551;DHT22;34397;51.176;6.738;2024-01-11T07:46:05;-3.30;68.90
48551;DHT22;34397;51.176;6.738;2024-01-11T07:48:37;-3.30;68.90
48551;DHT22;34397;51.176;6.738;2024-01-11T07:51:09;-3.30;68.80
48551;DHT22;34397;51.176;6.738;2024-01-11T07:53:41;-3.30;68.80
48551;DHT22;34397;51.176;6.738;2024-01-11T07:56:13;-3.30;68.70
48551;DHT22;34397;51.176;6.738;2024-01-11T07:58:46;-3.30;68.80
48551;DHT22;34397;51.176;6.738;2024-01-11T08:01:18;-3.30;68.70
48551;DHT22;34397;51.176;6.738;2024-01-11T08:03:50;-3.30;68.70
48551;DHT22;34397;51.176;6.738;2024-01-11T08:06:22;-3.30;68.60
48551;DHT22;34397;51.176;6.738;2024-01-11T08:08:54;-3.40;68.50
48551;DHT22;34397;51.176;6.738;2024-01-11T08:11:25;-3.40;68.60
48551;DHT22;34397;51.176;6.738;2024-01-11T08:14:00;-3.40;68.50
48551;DHT22;34397;51.176;6.738;2024-01-11T08:16:32;-3.40;68.60
48551;DHT22;34397;51.176;6.738;2024-01-11T08:19:04;-3.40;68.60
48551;DHT22;34397;51.176;6.738;2024-01-11T08:21:36;-3.40;68.60
48551;DHT22;34397;51.176;6.738;2024-01-11T08:24:08;-3.40;68.70
48551;DHT22;34397;51.176;6.738;2024-01-11T08:26:39;-3.40;68.70
48551;DHT22;34397;51.176;6.738;2024-01-11T08:29:14;-3.30;68.70
48551;DHT22;34397;51.176;6.738;2024-01-11T08:31:46;-3.40;68.60
48551;DHT22;34397;51.176;6.738;2024-01-11T08:34:18;-3.30;68.70
48551;DHT22;34397;51.176;6.738;2024-01-11T08:36:49;-3.30;68.80
48551;DHT22;34397;51.176;6.738;2024-01-11T08:39:22;-3.30;68.80
48551;DHT22;34397;51.176;6.738;2024-01-11T08:41:53;-3.20;68.80
48551;DHT22;34397;51.176;6.738;2024-01-11T08:44:27;-3.20;68.70
48551;DHT22;34397;51.176;6.738;2024-01-11T08:46:59;-3.20;68.60
48551;DHT22;34397;51.176;6.738;2024-01-11T08:49:32;-3.20;68.70
48551;DHT22;34397;51.176;6.738;2024-01-11T08:52:04;-3.20;68.70
48551;DHT22;34397;51.176;6.738;2024-01-11T08:54:36;-3.10;68.70
48551;DHT22;34397;51.176;6.738;2024-01-11T08:57:07;-3.10;68.60
48551;DHT22;34397;51.176;6.738;2024-01-11T08:59:40;-3.10;69.20
48551;DHT22;34397;51.176;6.738;2024-01-11T09:02:12;-3.10;68.50
48551;DHT22;34397;51.176;6.738;2024-01-11T09:04:44;-3.10;68.50
48551;DHT22;34397;51.176;6.738;2024-01-11T09:07:17;-3.00;68.60
48551;DHT22;34397;51.176;6.738;2024-01-11T09:09:51;-3.00;68.70
48551;DHT22;34397;51.176;6.738;2024-01-11T09:12:24;-3.00;68.70
48551;DHT22;34397;51.176;6.738;2024-01-11T09:14:57;-3.00;68.60
48551;DHT22;34397;51.176;6.738;2024-01-11T09:17:29;-2.90;68.70
48551;DHT22;34397;51.176;6.738;2024-01-11T09:20:01;-2.90;68.60
48551;DHT22;34397;51.176;6.738;2024-01-11T09:22:32;-2.90;68.50
48551;DHT22;34397;51.176;6.738;2024-01-11T09:25:04;-2.90;68.60
48551;DHT22;34397;51.176;6.738;2024-01-11T09:27:37;-2.90;68.60
48551;DHT22;34397;51.176;6.738;2024-01-11T09:30:10;-2.90;68.60
48551;DHT22;34397;51.176;6.738;2024-01-11T09:32:43;-2.80;68.50
48551;DHT22;34397;51.176;6.738;2024-01-11T09:35:14;-2.80;68.50
48551;DHT22;34397;51.176;6.738;2024-01-11T09:37:46;-2.80;68.50
48551;DHT22;34397;51.176;6.738;2024-01-11T09:40:18;-2.70;68.50
48551;DHT22;34397;51.176;6.738;2024-01-11T09:42:50;-2.70;68.50
48551;DHT22;34397;51.176;6.738;2024-01-11T09:45:24;-2.60;68.40
48551;DHT22;34397;51.176;6.738;2024-01-11T09:47:56;-2.60;68.40
48551;DHT22;34397;51.176;6.738;2024-01-11T09:50:27;-2.60;68.30
48551;DHT22;34397;51.176;6.738;2024-01-11T09:53:00;-2.60;68.30
48551;DHT22;34397;51.176;6.738;2024-01-11T09:55:35;-2.50;68.30
48551;DHT22;34397;51.176;6.738;2024-01-11T09:58:07;-2.50;68.20
48551;DHT22;34397;51.176;6.738;2024-01-11T10:00:41;-2.40;68.20
48551;DHT22;34397;51.176;6.738;2024-01-11T10:03:14;-2.40;68.20
48551;DHT22;34397;51.176;6.738;2024-01-11T10:05:46;-2.40;68.20
48551;DHT22;34397;51.176;6.738;2024-01-11T10:08:19;-2.30;68.20
48551;DHT22;34397;51.176;6.738;2024-01-11T10:10:53;-2.30;68.10
48551;DHT22;34397;51.176;6.738;2024-01-11T10:13:28;-2.30;68.10
48551;DHT22;34397;51.176;6.738;2024-01-11T10:16:08;-2.30;68.10
48551;DHT22;34397;51.176;6.738;2024-01-11T10:18:43;-2.20;68.20
48551;DHT22;34397;51.176;6.738;2024-01-11T10:21:15;-2.20;68.30
48551;DHT22;34397;51.176;6.738;2024-01-11T10:23:48;-2.20;68.20
48551;DHT22;34397;51.176;6.738;2024-01-11T10:26:20;-2.10;68.30
48551;DHT22;34397;51.176;6.738;2024-01-11T10:28:53;-2.10;68.30
48551;DHT22;34397;51.176;6.738;2024-01-11T10:31:29;-2.00;68.20
48551;DHT22;34397;51.176;6.738;2024-01-11T10:34:01;-2.00;68.20
48551;DHT22;34397;51.176;6.738;2024-01-11T10:36:32;-2.00;68.10
48551;DHT22;34397;51.176;6.738;2024-01-11T10:39:04;-1.90;68.20
48551;DHT22;34397;51.176;6.738;2024-01-11T10:41:38;-1.90;68.10
48551;DHT22;34397;51.176;6.738;2024-01-11T10:44:12;-1.90;67.90
48551;DHT22;34397;51.176;6.738;2024-01-11T10:46:51;-1.80;67.80
48551;DHT22;34397;51.176;6.738;2024-01-11T10:49:27;-1.80;67.60
48551;DHT22;34397;51.176;6.738;2024-01-11T10:51:59;-1.70;67.50
48551;DHT22;34397;51.176;6.738;2024-01-11T10:54:32;-1.60;67.30
48551;DHT22;34397;51.176;6.738;2024-01-11T10:57:05;-1.50;67.10
48551;DHT22;34397;51.176;6.738;2024-01-11T10:59:38;-1.50;67.00
48551;DHT22;34397;51.176;6.738;2024-01-11T11:02:12;-1.40;67.00
48551;DHT22;34397;51.176;6.738;2024-01-11T11:04:46;-1.30;67.20
48551;DHT22;34397;51.176;6.738;2024-01-11T11:07:18;-1.20;67.30
48551;DHT22;34397;51.176;6.738;2024-01-11T11:09:51;-1.10;67.40
48551;DHT22;34397;51.176;6.738;2024-01-11T11:12:24;-0.80;68.90
48551;DHT22;34397;51.176;6.738;2024-01-11T11:14:56;-0.40;70.30
48551;DHT22;34397;51.176;6.738;2024-01-11T11:17:29;0.10;71.70
48551;DHT22;34397;51.176;6.738;2024-01-11T11:20:01;0.60;72.70
48551;DHT22;34397;51.176;6.738;2024-01-11T11:22:33;1.30;73.60
48551;DHT22;34397;51.176;6.738;2024-01-11T11:25:06;1.90;72.90
48551;DHT22;34397;51.176;6.738;2024-01-11T11:27:39;2.60;73.40
48551;DHT22;34397;51.176;6.738;2024-01-11T11:30:11;3.20;73.20
48551;DHT22;34397;51.176;6.738;2024-01-11T11:32:44;3.90;72.20
48551;DHT22;34397;51.176;6.738;2024-01-11T11:35:17;4.40;70.30
48551;DHT22;34397;51.176;6.738;2024-01-11T11:37:48;5.10;71.00
48551;DHT22;34397;51.176;6.738;2024-01-11T11:40:31;5.60;70.10
48551;DHT22;34397;51.176;6.738;2024-01-11T11:43:04;6.10;68.60
48551;DHT22;34397;51.176;6.738;2024-01-11T11:45:36;6.60;66.80
48551;DHT22;34397;51.176;6.738;2024-01-11T11:51:19;7.40;64.10
48551;DHT22;34397;51.176;6.738;2024-01-11T11:53:52;7.80;64.20
48551;DHT22;34397;51.176;6.738;2024-01-11T11:56:24;8.10;56.20
48551;DHT22;34397;51.176;6.738;2024-01-11T11:58:56;8.40;56.10
48551;DHT22;34397;51.176;6.738;2024-01-11T12:01:28;8.70;58.90
48551;DHT22;34397;51.176;6.738;2024-01-11T12:04:00;8.90;48.90
48551;DHT22;34397;51.176;6.738;2024-01-11T12:06:34;9.20;45.50
48551;DHT22;34397;51.176;6.738;2024-01-11T12:09:05;9.40;43.70
48551;DHT22;34397;51.176;6.738;2024-01-11T12:11:38;9.70;44.70
48551;DHT22;34397;51.176;6.738;2024-01-11T12:14:09;10.00;43.60
48551;DHT22;34397;51.176;6.738;2024-01-11T12:16:41;10.20;41.90
48551;DHT22;34397;51.176;6.738;2024-01-11T12:19:13;10.40;41.50
48551;DHT22;34397;51.176;6.738;2024-01-11T12:21:46;10.50;39.70
48551;DHT22;34397;51.176;6.738;2024-01-11T12:24:18;10.80;39.70
48551;DHT22;34397;51.176;6.738;2024-01-11T12:26:52;11.00;39.60
48551;DHT22;34397;51.176;6.738;2024-01-11T12:29:24;11.20;39.40
48551;DHT22;34397;51.176;6.738;2024-01-11T12:31:55;11.30;38.80
48551;DHT22;34397;51.176;6.738;2024-01-11T12:34:27;11.50;39.30
48551;DHT22;34397;51.176;6.738;2024-01-11T12:37:01;11.80;38.80
48551;DHT22;34397;51.176;6.738;2024-01-11T12:39:37;11.80;36.50
48551;DHT22;34397;51.176;6.738;2024-01-11T12:42:09;11.90;36.00
48551;DHT22;34397;51.176;6.738;2024-01-11T12:44:41;12.00;36.20
48551;DHT22;34397;51.176;6.738;2024-01-11T12:47:12;12.10;36.00
48551;DHT22;34397;51.176;6.738;2024-01-11T12:49:44;12.20;36.80
48551;DHT22;34397;51.176;6.738;2024-01-11T12:52:18;12.30;35.90
48551;DHT22;34397;51.176;6.738;2024-01-11T12:54:51;12.40;38.80
48551;DHT22;34397;51.176;6.738;2024-01-11T12:57:23;12.50;37.30
48551;DHT22;34397;51.176;6.738;2024-01-11T12:59:55;12.50;37.60
48551;DHT22;34397;51.176;6.738;2024-01-11T13:02:40;12.60;39.00
48551;DHT22;34397;51.176;6.738;2024-01-11T13:05:13;12.60;37.60
48551;DHT22;34397;51.176;6.738;2024-01-11T13:07:47;12.50;36.40
48551;DHT22;34397;51.176;6.738;2024-01-11T13:10:18;12.50;35.90
48551;DHT22;34397;51.176;6.738;2024-01-11T13:12:50;12.50;34.80
48551;DHT22;34397;51.176;6.738;2024-01-11T13:15:22;12.50;36.20
48551;DHT22;34397;51.176;6.738;2024-01-11T13:17:55;12.50;38.30
48551;DHT22;34397;51.176;6.738;2024-01-11T13:20:27;12.50;39.60
48551;DHT22;34397;51.176;6.738;2024-01-11T13:23:13;12.50;38.30
48551;DHT22;34397;51.176;6.738;2024-01-11T13:25:46;12.50;38.30
48551;DHT22;34397;51.176;6.738;2024-01-11T13:28:18;12.50;38.60
48551;DHT22;34397;51.176;6.738;2024-01-11T13:30:50;12.50;40.60
48551;DHT22;34397;51.176;6.738;2024-01-11T13:33:22;12.40;40.00
48551;DHT22;34397;51.176;6.738;2024-01-11T13:35:54;12.40;41.20
48551;DHT22;34397;51.176;6.738;2024-01-11T13:38:27;12.30;39.40
48551;DHT22;34397;51.176;6.738;2024-01-11T13:40:59;12.30;40.60
48551;DHT22;34397;51.176;6.738;2024-01-11T13:43:30;12.20;40.10
48551;DHT22;34397;51.176;6.738;2024-01-11T13:46:03;12.20;40.50
48551;DHT22;34397;51.176;6.738;2024-01-11T13:48:35;12.10;37.30
48551;DHT22;34397;51.176;6.738;2024-01-11T13:51:07;12.10;40.00
48551;DHT22;34397;51.176;6.738;2024-01-11T13:53:41;12.10;40.50
48551;DHT22;34397;51.176;6.738;2024-01-11T13:56:13;12.00;40.50
48551;DHT22;34397;51.176;6.738;2024-01-11T13:58:45;11.90;40.80
48551;DHT22;34397;51.176;6.738;2024-01-11T14:01:18;11.90;40.40
48551;DHT22;34397;51.176;6.738;2024-01-11T14:03:49;11.90;38.40
48551;DHT22;34397;51.176;6.738;2024-01-11T14:06:21;11.70;38.40
48551;DHT22;34397;51.176;6.738;2024-01-11T14:08:55;11.70;40.00
48551;DHT22;34397;51.176;6.738;2024-01-11T14:11:27;11.60;38.20
48551;DHT22;34397;51.176;6.738;2024-01-11T14:13:58;11.60;38.90
48551;DHT22;34397;51.176;6.738;2024-01-11T14:16:30;11.50;40.00
48551;DHT22;34397;51.176;6.738;2024-01-11T14:19:02;11.40;39.60
48551;DHT22;34397;51.176;6.738;2024-01-11T14:21:34;11.30;39.80
48551;DHT22;34397;51.176;6.738;2024-01-11T14:24:08;11.10;38.80
48551;DHT22;34397;51.176;6.738;2024-01-11T14:26:40;11.00;39.20
48551;DHT22;34397;51.176;6.738;2024-01-11T14:29:13;10.80;36.40
48551;DHT22;34397;51.176;6.738;2024-01-11T14:31:46;10.60;36.50
48551;DHT22;34397;51.176;6.738;2024-01-11T14:34:18;10.50;37.60
48551;DHT22;34397;51.176;6.738;2024-01-11T14:36:50;10.30;37.50
48551;DHT22;34397;51.176;6.738;2024-01-11T14:39:23;10.00;37.30
48551;DHT22;34397;51.176;6.738;2024-01-11T14:41:56;9.70;36.80
48551;DHT22;34397;51.176;6.738;2024-01-11T14:44:27;9.40;37.00
48551;DHT22;34397;51.176;6.738;2024-01-11T14:46:59;9.10;37.70
48551;DHT22;34397;51.176;6.738;2024-01-11T14:49:31;8.80;38.10
48551;DHT22;34397;51.176;6.738;2024-01-11T14:52:04;8.50;38.80
48551;DHT22;34397;51.176;6.738;2024-01-11T14:54:38;8.20;39.20
48551;DHT22;34397;51.176;6.738;2024-01-11T14:57:10;7.90;39.40
48551;DHT22;34397;51.176;6.738;2024-01-11T14:59:43;7.60;39.70
48551;DHT22;34397;51.176;6.738;2024-01-11T15:02:15;7.30;40.40
48551;DHT22;34397;51.176;6.738;2024-01-11T15:04:47;7.00;40.10
48551;DHT22;34397;51.176;6.738;2024-01-11T15:07:18;6.80;40.50
48551;DHT22;34397;51.176;6.738;2024-01-11T15:09:52;6.50;40.80
48551;DHT22;34397;51.176;6.738;2024-01-11T15:12:23;6.30;41.00
48551;DHT22;34397;51.176;6.738;2024-01-11T15:14:55;6.10;41.20
48551;DHT22;34397;51.176;6.738;2024-01-11T15:17:27;5.80;41.50
48551;DHT22;34397;51.176;6.738;2024-01-11T15:20:00;5.60;41.90
48551;DHT22;34397;51.176;6.738;2024-01-11T15:22:33;5.40;42.20
48551;DHT22;34397;51.176;6.738;2024-01-11T15:25:06;5.30;42.40
48551;DHT22;34397;51.176;6.738;2024-01-11T15:27:38;5.10;42.80
48551;DHT22;34397;51.176;6.738;2024-01-11T15:30:10;5.00;42.70
48551;DHT22;34397;51.176;6.738;2024-01-11T15:32:43;4.80;42.70
48551;DHT22;34397;51.176;6.738;2024-01-11T15:35:15;4.60;43.20
48551;DHT22;34397;51.176;6.738;2024-01-11T15:37:46;4.50;43.10
48551;DHT22;34397;51.176;6.738;2024-01-11T15:40:20;4.40;43.40
48551;DHT22;34397;51.176;6.738;2024-01-11T15:42:52;4.30;44.10
48551;DHT22;34397;51.176;6.738;2024-01-11T15:45:24;4.10;44.00
48551;DHT22;34397;51.176;6.738;2024-01-11T15:47:55;4.00;44.20
48551;DHT22;34397;51.176;6.738;2024-01-11T15:50:27;3.80;44.40
48551;DHT22;34397;51.176;6.738;2024-01-11T15:52:59;3.80;44.70
48551;DHT22;34397;51.176;6.738;2024-01-11T15:55:32;3.60;44.80
48551;DHT22;34397;51.176;6.738;2024-01-11T15:58:04;3.60;44.90
48551;DHT22;34397;51.176;6.738;2024-01-11T16:00:35;3.50;45.70
48551;DHT22;34397;51.176;6.738;2024-01-11T16:03:07;3.40;45.90
48551;DHT22;34397;51.176;6.738;2024-01-11T16:05:39;3.30;46.20
48551;DHT22;34397;51.176;6.738;2024-01-11T16:08:11;3.20;46.40